Lakeville, MN

9:38 PM CST on November 28, 2014 (GMT -0600)
Minneapolis-Saint Paul International | Change Station
CLOSE
Current Station
Airport
Location: Minneapolis,
Elevation: 837 ft
Nearby Weather Stations

Elev 837 ft 44.89 °N, 93.23 °W | Updated 45 minutes ago

Partly Cloudy
Partly Cloudy
22 °F
Feels Like 12 °F
N
9
Wind Variable Wind from ESE

Today
High -- | Low -- °F
--% Chance of Precip.
Yesterday
High -- | Low -- °F
Precip. -- in
7:26 AM 4:35 PM
Waxing Crescent, 47% visible
Pressure 29.82 in
Visibility 9.0 miles
Clouds Scattered Clouds 1800 ft
Scattered Clouds 13000 ft
Mostly Cloudy 18000 ft
Windchill 12 °F
Dew Point 18 °F
Humidity 85%
Rainfall 0.08 in
Snow Depth Not available.
UV 0 out of 12
Pollen .10 out of 12
Air Quality Not available.
Flu Activity Not available.
METAR KMSP 290253Z 11008KT 9SM SCT018 SCT130 BKN180 M06/M08 A2977 RMK AO2 SLP097 T10561078 58016

More Conditions Fewer Conditions

Pressure 29.82 in
Visibility 9.0 miles
Clouds Scattered Clouds 1800 ft
Scattered Clouds 13000 ft
Mostly Cloudy 18000 ft
Windchill 12 °F
Dew Point 18 °F
Humidity 85%
Rainfall 0.08 in
Snow Depth Not available.
UV 0 out of 12
Pollen .10 out of 12
Air Quality Not available.
Flu Activity Not available.
METAR KMSP 290253Z 11008KT 9SM SCT018 SCT130 BKN180 M06/M08 A2977 RMK AO2 SLP097 T10561078 58016

More Conditions Fewer Conditions

10-Day Weather Forecast

Almanac

Astronomy

Nov. 28, 2014 Rise Set
Actual Time
Civil Twilight
Nautical Twilight
Astronomical Twilight
Moon
Length of Visible Light
Length of Day
Tomorrow will be .
, % of the Moon is Illuminated

Today's Extremes

State Highs State Lows

Community

WunderPhotos

Upload Photos

1,774,385 photos uploaded!

WunderBlogs® & News

Nearby

Air Quality

  Air Quality AQ Index Pollutant
Not available.

Snow Depth

Station Depth Elevation

Earthquake Activity

City Distance Mag. Time & Date
Minimum magnitude displayed is 2.5.

Coastal Water Temperatures

Place Temperature

Nearby Weather Stations